Time;durP1;ratioP1;P1;durP2;ratioP2;P2;SDS_P1;SDS_P2;PMS_P1;PMS_P2;Temp;Humidity;BMP_temperature;BMP_pressure;BME280_temperature;BME280_humidity;BME280_pressure;Samples;Min_cycle;Max_cycle;Signal;HPM_P1;HPM_P2
2022/07/04 00:01:06;;;;;;;11.82;4.18;;;13.90;99.90;;;;;;4928131;28;241068;-78
2022/07/04 00:03:32;;;;;;;10.82;4.30;;;13.90;99.90;;;;;;4992181;28;20057;-78
2022/07/04 00:05:58;;;;;;;9.77;4.10;;;13.80;99.90;;;;;;4913214;28;206075;-78
2022/07/04 00:08:24;;;;;;;9.80;3.80;;;13.80;99.90;;;;;;4981245;28;20072;-79
2022/07/04 00:10:51;;;;;;;9.65;4.40;;;13.80;99.90;;;;;;4909163;28;245569;-79
2022/07/04 00:13:17;;;;;;;12.00;5.15;;;13.80;99.90;;;;;;4997301;28;20072;-78
2022/07/04 00:15:43;;;;;;;9.63;4.18;;;13.70;99.90;;;;;;4927152;28;219637;-79
2022/07/04 00:18:09;;;;;;;11.63;3.80;;;13.70;99.90;;;;;;4993610;28;20053;-78
2022/07/04 00:20:35;;;;;;;9.55;4.03;;;13.60;99.90;;;;;;4943679;28;215279;-78
2022/07/04 00:23:01;;;;;;;11.27;3.55;;;13.60;99.90;;;;;;4990129;28;20101;-78
2022/07/04 00:25:27;;;;;;;10.50;3.72;;;13.50;99.90;;;;;;4949574;28;258154;-78
2022/07/04 00:27:53;;;;;;;8.95;3.88;;;13.60;99.90;;;;;;4971936;28;20046;-79
2022/07/04 00:30:20;;;;;;;9.03;3.97;;;13.50;99.90;;;;;;4944544;28;206364;-79
2022/07/04 00:32:46;;;;;;;9.38;4.22;;;13.50;99.90;;;;;;5004869;28;20050;-78
2022/07/04 00:35:12;;;;;;;10.65;4.70;;;13.40;99.90;;;;;;4964671;28;212894;-79
2022/07/04 00:37:38;;;;;;;12.02;4.50;;;13.40;99.90;;;;;;4938650;28;209741;-79
2022/07/04 00:40:05;;;;;;;12.88;6.28;;;13.40;99.90;;;;;;4991856;28;177897;-79
2022/07/04 00:42:31;;;;;;;10.43;4.82;;;13.30;99.90;;;;;;4936035;28;206951;-79
2022/07/04 00:44:58;;;;;;;12.40;5.30;;;13.20;99.90;;;;;;4994076;28;82999;-81
2022/07/04 00:47:24;;;;;;;10.25;5.10;;;13.10;99.90;;;;;;4948537;28;206429;-79
2022/07/04 00:49:50;;;;;;;12.73;5.50;;;13.10;99.90;;;;;;4996076;28;87191;-79
2022/07/04 00:52:17;;;;;;;10.35;4.88;;;13.10;99.90;;;;;;4959578;28;205146;-80
2022/07/04 00:54:45;;;;;;;10.65;4.65;;;13.10;99.90;;;;;;5009809;28;20098;-79
2022/07/04 00:57:11;;;;;;;11.52;4.80;;;13.00;99.90;;;;;;4955575;28;209143;-80
2022/07/04 00:59:37;;;;;;;10.90;5.35;;;13.00;99.90;;;;;;4992521;28;191192;-79
2022/07/04 01:02:03;;;;;;;10.93;5.22;;;13.00;99.90;;;;;;4966944;28;206786;-80
2022/07/04 01:04:29;;;;;;;9.85;4.93;;;13.00;99.90;;;;;;4978488;28;254220;-81
2022/07/04 01:06:56;;;;;;;10.10;4.80;;;12.90;99.90;;;;;;4957731;28;205642;-81
2022/07/04 01:09:22;;;;;;;10.30;4.65;;;12.90;99.90;;;;;;4979122;28;275872;-79
2022/07/04 01:11:51;;;;;;;10.40;4.80;;;12.90;99.90;;;;;;4962962;28;209721;-80
2022/07/04 01:14:18;;;;;;;10.88;4.82;;;12.90;99.90;;;;;;4994207;28;216766;-79
2022/07/04 01:16:44;;;;;;;9.20;4.72;;;12.90;99.90;;;;;;4949047;28;208500;-79
2022/07/04 01:19:10;;;;;;;12.02;5.50;;;12.90;99.90;;;;;;4976921;28;277184;-79
2022/07/04 01:21:36;;;;;;;9.43;4.40;;;12.90;99.90;;;;;;4946391;28;218212;-79
2022/07/04 01:24:03;;;;;;;10.63;4.60;;;12.90;99.90;;;;;;4972629;28;20150;-79
2022/07/04 01:26:30;;;;;;;8.40;3.83;;;12.90;99.90;;;;;;4934395;28;210181;-78
2022/07/04 01:28:56;;;;;;;11.35;4.68;;;12.90;99.90;;;;;;4976718;28;20068;-79
2022/07/04 01:31:22;;;;;;;9.70;4.57;;;12.80;99.90;;;;;;4940529;28;206269;-79
2022/07/04 01:33:49;;;;;;;12.13;4.45;;;12.90;99.90;;;;;;4976844;28;20054;-79
2022/07/04 01:36:15;;;;;;;12.95;5.90;;;12.80;99.90;;;;;;4931826;28;207825;-79
2022/07/04 01:38:41;;;;;;;11.20;5.65;;;12.80;99.90;;;;;;5000140;28;20050;-80
2022/07/04 01:41:07;;;;;;;13.02;5.32;;;12.90;99.90;;;;;;4941008;28;221884;-79
2022/07/04 01:43:35;;;;;;;10.60;5.57;;;12.80;99.90;;;;;;4990393;28;20054;-80
2022/07/04 01:46:01;;;;;;;10.32;4.95;;;12.80;99.90;;;;;;4943412;28;211655;-80
2022/07/04 01:48:27;;;;;;;11.20;5.00;;;12.80;99.90;;;;;;4985783;28;20060;-80
2022/07/04 01:50:53;;;;;;;10.80;4.60;;;12.80;99.90;;;;;;4946851;28;235395;-81
2022/07/04 01:53:19;;;;;;;13.98;5.32;;;12.80;99.90;;;;;;4986768;28;20258;-79
2022/07/04 01:55:45;;;;;;;9.65;5.03;;;12.80;99.90;;;;;;4949062;28;203286;-79
2022/07/04 01:58:12;;;;;;;12.98;5.45;;;12.80;99.90;;;;;;4990888;28;20052;-79
2022/07/04 02:03:22;;;;;;;11.48;5.30;;;12.70;99.90;;;;;;4993623;28;20042;-81
2022/07/04 02:05:48;;;;;;;9.32;5.00;;;12.70;99.90;;;;;;4903515;28;219507;-79
2022/07/04 02:08:15;;;;;;;10.93;4.80;;;12.70;99.90;;;;;;4973848;28;20424;-80
2022/07/04 02:10:41;;;;;;;10.77;5.07;;;12.60;99.90;;;;;;4940036;28;210058;-80
2022/07/04 02:13:07;;;;;;;11.90;5.32;;;12.70;99.90;;;;;;4993835;28;20058;-80
2022/07/04 02:15:40;;;;;;;11.63;5.68;;;12.70;99.90;;;;;;4941855;28;199566;-82
2022/07/04 02:18:09;;;;;;;12.88;6.00;;;12.60;99.90;;;;;;5000297;28;20045;-80
2022/07/04 02:20:37;;;;;;;15.52;7.05;;;12.60;99.90;;;;;;4948769;28;205649;-81
2022/07/04 02:23:05;;;;;;;13.43;6.28;;;12.60;99.90;;;;;;4970147;28;20058;-81
2022/07/04 02:25:31;;;;;;;9.82;5.93;;;12.70;99.90;;;;;;4949322;28;206869;-80
2022/07/04 02:27:57;;;;;;;13.00;7.05;;;12.70;99.90;;;;;;4982868;28;20065;-80
2022/07/04 02:30:24;;;;;;;11.53;6.63;;;12.70;99.90;;;;;;4927743;28;206483;-80
2022/07/04 02:32:50;;;;;;;13.52;6.75;;;12.70;99.90;;;;;;4998952;28;20061;-80
2022/07/04 02:35:17;;;;;;;10.50;6.43;;;12.60;99.90;;;;;;4978727;28;97354;-80
2022/07/04 02:37:43;;;;;;;14.63;6.50;;;12.60;99.90;;;;;;4964254;28;209856;-79
2022/07/04 02:40:10;;;;;;;15.27;6.72;;;12.70;99.90;;;;;;4989775;28;70158;-79
2022/07/04 02:42:37;;;;;;;12.65;7.30;;;12.60;99.90;;;;;;4942232;28;210091;-79
2022/07/04 02:45:04;;;;;;;13.85;7.38;;;12.60;99.90;;;;;;4995786;28;35686;-80
2022/07/04 02:47:30;;;;;;;10.40;5.97;;;12.60;99.90;;;;;;4956750;28;206141;-79
2022/07/04 02:49:57;;;;;;;12.95;6.90;;;12.60;99.90;;;;;;4989245;28;108680;-81
2022/07/04 02:52:23;;;;;;;11.82;6.97;;;12.60;99.90;;;;;;4929021;28;200071;-79
2022/07/04 02:54:49;;;;;;;14.65;6.78;;;12.60;99.90;;;;;;4987754;28;106742;-79
2022/07/04 02:57:15;;;;;;;14.15;6.60;;;12.60;99.90;;;;;;4947852;28;212609;-81
2022/07/04 02:59:42;;;;;;;16.58;7.63;;;12.60;99.90;;;;;;4995155;28;111908;-79
2022/07/04 03:02:08;;;;;;;14.40;7.50;;;12.60;99.90;;;;;;4935935;28;209395;-81
2022/07/04 03:04:34;;;;;;;13.18;7.05;;;12.60;99.90;;;;;;4979024;28;142691;-79
2022/07/04 03:07:01;;;;;;;13.73;7.25;;;12.60;99.90;;;;;;4940425;28;206741;-79
2022/07/04 03:09:27;;;;;;;12.68;7.20;;;12.60;99.90;;;;;;4970019;28;260560;-79
2022/07/04 03:11:53;;;;;;;10.77;6.68;;;12.60;99.90;;;;;;4954967;28;208116;-79
2022/07/04 03:14:20;;;;;;;14.13;7.35;;;12.50;99.90;;;;;;4969386;28;263468;-80
2022/07/04 03:16:46;;;;;;;13.80;7.32;;;12.50;99.90;;;;;;4933345;28;208350;-80
2022/07/04 03:19:13;;;;;;;13.82;7.50;;;12.50;99.90;;;;;;4987958;28;241519;-80
2022/07/04 03:21:39;;;;;;;12.32;7.03;;;12.50;99.90;;;;;;4957968;28;200882;-79
2022/07/04 03:24:05;;;;;;;14.20;6.75;;;12.50;99.90;;;;;;4991285;28;20050;-80
2022/07/04 03:26:33;;;;;;;14.18;7.50;;;12.50;99.90;;;;;;4927196;28;254371;-79
2022/07/04 03:29:00;;;;;;;13.85;7.68;;;12.60;99.90;;;;;;5010843;28;20503;-80
2022/07/04 03:31:28;;;;;;;13.55;7.00;;;12.60;99.90;;;;;;4953728;28;164219;-80
2022/07/04 03:33:55;;;;;;;12.57;7.40;;;12.60;99.90;;;;;;5000691;28;20057;-81
2022/07/04 03:36:21;;;;;;;15.38;7.93;;;12.50;99.90;;;;;;4952292;28;205614;-80
2022/07/04 03:38:48;;;;;;;16.40;7.43;;;12.60;99.90;;;;;;4981791;28;20046;-80
2022/07/04 03:41:14;;;;;;;13.52;6.88;;;12.60;99.90;;;;;;4946379;28;224472;-81
2022/07/04 03:43:40;;;;;;;13.43;7.53;;;12.60;99.90;;;;;;4996592;28;20510;-80
2022/07/04 03:46:07;;;;;;;13.40;7.75;;;12.60;99.90;;;;;;4942706;28;205604;-80
2022/07/04 03:48:33;;;;;;;14.60;7.50;;;12.60;99.90;;;;;;5003488;28;20049;-82
2022/07/04 03:50:59;;;;;;;12.95;6.88;;;12.60;99.90;;;;;;4961979;28;270353;-81
2022/07/04 03:53:25;;;;;;;12.15;7.00;;;12.70;99.90;;;;;;5008058;28;20046;-80
2022/07/04 03:55:51;;;;;;;15.18;7.43;;;12.70;99.90;;;;;;4941996;28;212324;-80
2022/07/04 03:58:17;;;;;;;15.82;8.15;;;12.70;99.90;;;;;;4984141;28;20054;-80
2022/07/04 04:00:44;;;;;;;14.77;7.65;;;12.70;99.90;;;;;;4945828;28;206068;-79
2022/07/04 04:06:02;;;;;;;12.70;7.78;;;12.80;99.90;;;;;;4924914;28;205346;-81
2022/07/04 04:08:28;;;;;;;15.48;7.85;;;12.90;99.90;;;;;;4982217;28;20049;-82
2022/07/04 04:10:54;;;;;;;12.90;7.63;;;13.00;99.90;;;;;;4942349;28;202533;-80
2022/07/04 04:13:20;;;;;;;13.48;7.90;;;13.00;99.90;;;;;;4995686;28;20046;-80
2022/07/04 04:15:47;;;;;;;13.98;7.80;;;13.10;99.90;;;;;;4940564;28;236320;-80
2022/07/04 04:18:14;;;;;;;13.75;7.90;;;13.10;99.90;;;;;;4997643;28;20061;-82
2022/07/04 04:20:40;;;;;;;14.43;8.43;;;13.10;99.90;;;;;;4956328;28;139353;-80
2022/07/04 04:23:06;;;;;;;13.38;7.82;;;13.20;99.90;;;;;;4996164;28;20090;-80
2022/07/04 04:25:33;;;;;;;15.73;8.73;;;13.20;99.90;;;;;;4937427;28;206047;-81
2022/07/04 04:27:59;;;;;;;14.23;8.68;;;13.30;99.90;;;;;;4995032;28;20053;-81
2022/07/04 04:30:26;;;;;;;15.60;8.27;;;13.40;99.90;;;;;;4943233;28;199248;-80
2022/07/04 04:32:52;;;;;;;14.10;8.82;;;13.50;99.90;;;;;;4987680;28;20137;-81
2022/07/04 04:35:19;;;;;;;12.50;7.68;;;13.50;99.90;;;;;;4952416;28;204306;-81
2022/07/04 04:37:45;;;;;;;15.55;7.45;;;13.60;99.90;;;;;;4980406;28;209562;-81
2022/07/04 04:40:11;;;;;;;17.20;8.32;;;13.60;99.90;;;;;;5018132;28;47263;-80
2022/07/04 04:42:37;;;;;;;14.73;7.80;;;13.70;99.90;;;;;;4948047;28;209272;-81
2022/07/04 04:45:04;;;;;;;14.38;8.18;;;13.80;99.90;;;;;;5002972;28;159987;-81
2022/07/04 04:47:31;;;;;;;14.10;6.90;;;13.90;99.90;;;;;;4964252;28;181588;-80
2022/07/04 04:49:57;;;;;;;17.15;8.30;;;13.90;99.90;;;;;;4984924;28;81104;-80
2022/07/04 04:52:23;;;;;;;16.80;8.40;;;14.00;99.90;;;;;;4966402;28;90240;-80
2022/07/04 04:54:49;;;;;;;13.35;7.82;;;14.00;99.90;;;;;;5006360;28;60193;-82
2022/07/04 04:57:15;;;;;;;14.27;8.07;;;14.10;99.90;;;;;;4955013;28;209224;-81
2022/07/04 04:59:41;;;;;;;13.80;8.10;;;14.10;99.90;;;;;;5002529;28;77421;-80
2022/07/04 05:02:07;;;;;;;13.40;7.43;;;14.10;99.90;;;;;;4964202;28;207299;-80
2022/07/04 05:04:34;;;;;;;14.18;7.45;;;14.10;99.90;;;;;;4974112;28;234211;-80
2022/07/04 05:07:00;;;;;;;16.58;7.45;;;14.10;99.90;;;;;;4943045;28;209502;-78
2022/07/04 05:09:26;;;;;;;13.63;7.47;;;14.20;99.90;;;;;;4982238;28;244315;-80
2022/07/04 05:11:52;;;;;;;15.50;7.53;;;14.30;99.90;;;;;;4956831;28;152738;-79
2022/07/04 05:14:19;;;;;;;15.40;7.60;;;14.30;99.90;;;;;;4971357;28;274650;-78
2022/07/04 05:16:45;;;;;;;12.88;7.43;;;14.40;99.90;;;;;;4938856;28;210448;-79
2022/07/04 05:19:12;;;;;;;15.52;7.70;;;14.40;99.90;;;;;;4974515;28;268457;-79
2022/07/04 05:21:38;;;;;;;18.60;8.52;;;14.50;99.90;;;;;;4952399;28;143743;-78
2022/07/04 05:24:04;;;;;;;13.68;7.50;;;14.60;99.90;;;;;;4997683;28;20049;-79
2022/07/04 05:26:30;;;;;;;15.23;7.53;;;14.60;99.90;;;;;;4932617;28;205059;-79
2022/07/04 05:28:57;;;;;;;15.55;7.68;;;14.70;99.90;;;;;;4988577;28;20073;-79
2022/07/04 05:31:24;;;;;;;15.68;7.35;;;14.80;99.90;;;;;;4905669;28;205290;-78
2022/07/04 05:33:52;;;;;;;13.85;8.10;;;14.90;99.90;;;;;;4980200;28;20057;-79
2022/07/04 05:36:19;;;;;;;13.40;7.30;;;14.90;99.90;;;;;;4930150;28;126015;-78
2022/07/04 05:38:45;;;;;;;16.15;7.95;;;15.00;99.90;;;;;;4990091;28;20057;-78
2022/07/04 05:41:11;;;;;;;14.75;7.70;;;15.10;99.90;;;;;;4948578;28;208551;-79
2022/07/04 05:43:37;;;;;;;17.60;8.13;;;15.20;99.90;;;;;;4973069;28;20116;-79
2022/07/04 05:46:05;;;;;;;15.52;7.75;;;15.30;99.90;;;;;;4911539;28;206557;-78
2022/07/04 05:48:31;;;;;;;14.07;7.90;;;15.40;99.90;;;;;;4984666;28;20076;-78
2022/07/04 05:50:57;;;;;;;17.88;7.10;;;15.50;99.90;;;;;;4930664;28;240657;-78
2022/07/04 05:53:23;;;;;;;15.75;7.18;;;15.50;99.90;;;;;;4968934;28;20074;-78
2022/07/04 05:55:49;;;;;;;13.55;6.65;;;15.60;99.90;;;;;;4913259;28;208675;-78
2022/07/04 05:58:16;;;;;;;13.05;6.15;;;15.70;99.90;;;;;;4990095;28;20057;-78
2022/07/04 06:00:42;;;;;;;14.63;6.15;;;15.80;99.90;;;;;;4911385;28;169561;-78
2022/07/04 06:03:08;;;;;;;12.70;5.63;;;16.10;99.90;;;;;;4972553;28;20411;-78
2022/07/04 06:05:34;;;;;;;13.82;5.88;;;16.20;99.90;;;;;;4908031;28;232528;-78
2022/07/04 06:08:01;;;;;;;14.23;5.20;;;16.50;99.90;;;;;;4981827;28;20046;-78
2022/07/04 06:10:28;;;;;;;12.30;5.25;;;16.60;99.90;;;;;;4936617;28;200692;-78
2022/07/04 06:12:54;;;;;;;12.02;5.00;;;16.80;99.90;;;;;;4976082;28;20054;-78
2022/07/04 06:15:21;;;;;;;15.82;5.10;;;16.90;99.90;;;;;;4934003;28;273749;-78
2022/07/04 06:17:47;;;;;;;13.43;5.65;;;17.00;99.90;;;;;;4983188;28;20073;-78
2022/07/04 06:20:13;;;;;;;12.70;5.03;;;17.20;99.90;;;;;;4994838;28;144960;-78
2022/07/04 06:22:45;;;;;;;12.73;5.40;;;17.20;99.90;;;;;;4918359;28;205906;-78
2022/07/04 06:25:13;;;;;;;12.15;5.22;;;17.40;99.90;;;;;;4995500;28;198061;-78
2022/07/04 06:27:39;;;;;;;13.73;4.90;;;17.50;99.90;;;;;;4958530;28;173500;-78
2022/07/04 06:30:06;;;;;;;13.20;4.60;;;17.60;99.90;;;;;;4972410;28;37455;-78
2022/07/04 06:32:55;;;;;;;11.85;4.53;;;17.70;99.90;;;;;;4953135;28;186913;-78
2022/07/04 06:35:46;;;;;;;10.93;4.90;;;18.00;99.90;;;;;;4947366;28;207951;-78
2022/07/04 06:38:13;;;;;;;;;;;18.10;99.90;;;;;;4985014;28;20061;-78
2022/07/04 06:40:40;;;;;;;12.52;4.00;;;18.10;99.90;;;;;;4940601;28;287441;-78
2022/07/04 06:43:06;;;;;;;12.75;4.45;;;18.30;99.90;;;;;;4993312;28;20046;-78
2022/07/04 06:45:33;;;;;;;13.98;4.47;;;18.50;99.90;;;;;;4947821;28;225795;-78
2022/07/04 06:48:00;;;;;;;15.10;4.75;;;18.60;99.90;;;;;;4995321;28;20045;-79
2022/07/04 06:50:27;;;;;;;14.40;4.47;;;18.50;99.90;;;;;;4939797;28;225555;-78
2022/07/04 06:52:53;;;;;;;10.57;3.95;;;18.50;99.90;;;;;;4984471;28;20435;-78
2022/07/04 06:55:19;;;;;;;13.07;4.35;;;18.40;99.90;;;;;;4958038;28;211517;-78
2022/07/04 06:57:45;;;;;;;13.35;4.38;;;18.50;99.90;;;;;;4983590;28;20054;-78
2022/07/04 07:00:11;;;;;;;11.32;4.50;;;18.70;99.90;;;;;;4994445;28;126887;-78
2022/07/04 07:02:37;;;;;;;14.05;4.15;;;19.00;99.90;;;;;;4942259;28;213698;-78
2022/07/04 07:05:04;;;;;;;12.77;4.45;;;19.00;99.90;;;;;;4979660;28;193767;-78
2022/07/04 07:07:31;;;;;;;12.85;4.43;;;18.80;99.90;;;;;;4929985;28;210318;-78
2022/07/04 07:09:57;;;;;;;11.75;4.07;;;18.70;99.90;;;;;;4992195;28;20042;-78
2022/07/04 07:12:23;;;;;;;15.38;4.88;;;18.80;99.90;;;;;;4926472;28;205744;-78
2022/07/04 07:14:50;;;;;;;15.18;4.78;;;18.80;99.90;;;;;;4988926;28;145031;-78
2022/07/04 07:17:17;;;;;;;12.88;4.45;;;18.70;99.90;;;;;;4959370;28;172564;-77
2022/07/04 07:19:44;;;;;;;16.70;4.30;;;18.90;99.90;;;;;;4982856;28;85476;-78
2022/07/04 07:22:11;;;;;;;13.73;3.83;;;19.10;99.90;;;;;;4935086;28;206445;-78
2022/07/04 07:24:37;;;;;;;14.35;4.15;;;19.20;99.90;;;;;;4994443;28;216740;-79
2022/07/04 07:27:04;;;;;;;12.95;3.90;;;19.40;99.90;;;;;;4936976;28;230383;-78
2022/07/04 07:29:30;;;;;;;14.60;3.85;;;19.50;99.90;;;;;;4986722;28;278014;-78
2022/07/04 07:31:57;;;;;;;12.98;3.63;;;19.70;99.90;;;;;;4964071;28;137571;-78
2022/07/04 07:34:23;;;;;;;12.77;3.20;;;19.90;99.90;;;;;;4979972;28;256507;-78
2022/07/04 07:36:49;;;;;;;14.05;3.42;;;19.90;99.90;;;;;;4954064;28;223219;-78
2022/07/04 07:39:15;;;;;;;12.18;3.47;;;20.10;99.90;;;;;;4985545;28;258970;-78
2022/07/04 07:41:41;;;;;;;11.15;3.08;;;20.20;99.90;;;;;;4966523;28;190675;-78
2022/07/04 07:44:08;;;;;;;14.43;2.92;;;20.30;99.90;;;;;;4962821;28;255981;-77
2022/07/04 07:46:34;;;;;;;12.10;3.15;;;20.40;99.90;;;;;;4947300;28;209226;-78
2022/07/04 07:49:00;;;;;;;13.80;2.70;;;20.60;99.90;;;;;;4977961;28;20066;-77
2022/07/04 07:51:26;;;;;;;13.38;2.70;;;20.70;99.90;;;;;;4925068;28;222730;-78
2022/07/04 07:53:52;;;;;;;14.80;2.63;;;20.90;99.90;;;;;;4992249;28;20050;-78
2022/07/04 07:56:18;;;;;;;10.65;2.65;;;21.10;99.90;;;;;;4944283;28;202625;-78
2022/07/04 07:58:45;;;;;;;9.00;2.28;;;21.20;99.90;;;;;;4981985;28;20057;-79
2022/07/04 08:01:11;;;;;;;12.30;2.30;;;21.40;99.90;;;;;;4944570;28;211996;-79
2022/07/04 08:06:21;;;;;;;10.00;2.00;;;21.90;99.90;;;;;;4921753;28;184576;-79
2022/07/04 08:08:48;;;;;;;9.82;2.08;;;22.00;99.90;;;;;;5002625;28;20138;-79
2022/07/04 08:11:17;;;;;;;11.10;2.20;;;21.90;99.90;;;;;;4943866;28;206444;-79
2022/07/04 08:13:44;;;;;;;10.00;2.60;;;22.00;99.90;;;;;;5001018;28;20057;-79
2022/07/04 08:16:10;;;;;;;11.73;2.17;;;22.10;99.90;;;;;;4955713;28;268563;-79
2022/07/04 08:18:36;;;;;;;10.18;2.20;;;21.80;99.90;;;;;;5001466;28;20515;-79
2022/07/04 08:21:03;;;;;;;11.88;2.13;;;21.80;99.90;;;;;;4946994;28;206634;-79
2022/07/04 08:23:30;;;;;;;8.70;1.83;;;22.00;99.90;;;;;;4992351;28;20053;-79
2022/07/04 08:25:58;;;;;;;10.38;1.90;;;22.30;99.90;;;;;;4948201;28;218633;-79
2022/07/04 08:28:24;;;;;;;11.50;2.03;;;22.60;99.90;;;;;;4998317;28;20050;-79
2022/07/04 08:30:51;;;;;;;11.52;2.33;;;22.70;99.90;;;;;;4944089;28;207236;-79
2022/07/04 08:33:17;;;;;;;10.38;2.00;;;22.60;99.90;;;;;;4981490;28;20055;-79
2022/07/04 08:35:43;;;;;;;12.07;2.38;;;22.60;99.80;;;;;;4949990;28;207054;-79
2022/07/04 08:38:10;;;;;;;9.43;1.88;;;22.40;99.60;;;;;;4990337;28;20054;-79
2022/07/04 08:40:36;;;;;;;8.65;1.70;;;22.50;99.80;;;;;;4949315;28;210408;-79
2022/07/04 08:43:03;;;;;;;7.60;1.58;;;22.80;99.90;;;;;;5002488;28;20050;-79
2022/07/04 08:45:34;;;;;;;8.05;1.55;;;22.80;99.90;;;;;;4947003;28;210361;-79
2022/07/04 08:48:06;;;;;;;7.95;1.38;;;22.80;99.50;;;;;;4990043;28;20058;-79
2022/07/04 08:50:34;;;;;;;9.52;1.65;;;22.70;97.00;;;;;;4957260;28;208038;-79
2022/07/04 08:53:06;;;;;;;6.97;1.40;;;22.30;97.60;;;;;;4992035;28;20049;-79
2022/07/04 08:58:31;;;;;;;7.85;1.50;;;22.10;97.60;;;;;;5001773;28;20348;-79
2022/07/04 09:01:05;;;;;;;8.18;1.75;;;22.40;97.00;;;;;;4950052;28;204937;-79
2022/07/04 09:03:32;;;;;;;7.25;1.40;;;22.10;98.70;;;;;;4981184;28;20567;-79
2022/07/04 09:05:59;;;;;;;5.22;1.20;;;22.20;98.90;;;;;;4932154;28;210218;-79
2022/07/04 09:08:25;;;;;;;6.80;1.40;;;22.60;98.80;;;;;;4993625;28;20057;-79
2022/07/04 09:10:52;;;;;;;5.18;1.20;;;22.90;98.50;;;;;;4927639;28;214080;-79
2022/07/04 09:13:19;;;;;;;8.10;1.40;;;23.10;95.30;;;;;;4974225;28;20487;-79
2022/07/04 09:15:52;;;;;;;7.43;1.40;;;23.50;96.50;;;;;;4929906;28;217377;-79
2022/07/04 09:18:22;;;;;;;7.13;1.30;;;23.70;94.20;;;;;;4990518;28;20125;-79
2022/07/04 09:20:48;;;;;;;5.85;1.10;;;23.70;94.10;;;;;;4956321;28;218700;-79
2022/07/04 09:23:23;;;;;;;5.57;1.20;;;23.90;94.10;;;;;;4997034;28;20057;-79
2022/07/04 09:26:11;;;;;;;6.93;1.20;;;23.70;93.20;;;;;;4931176;28;207119;-80
2022/07/04 09:28:39;;;;;;;7.00;1.35;;;23.30;89.10;;;;;;5002391;28;20507;-79
2022/07/04 09:31:19;;;;;;;6.85;1.17;;;23.00;92.20;;;;;;4925558;28;212505;-79
2022/07/04 09:33:54;;;;;;;5.78;1.20;;;22.70;86.90;;;;;;5011774;28;20042;-79
2022/07/04 09:36:24;;;;;;;6.75;1.20;;;22.60;92.70;;;;;;4950587;28;205346;-79
2022/07/04 09:39:11;;;;;;;7.15;1.48;;;22.60;91.80;;;;;;4999999;28;20050;-79
2022/07/04 09:41:58;;;;;;;8.77;1.30;;;22.40;90.00;;;;;;4927196;28;216055;-79
2022/07/04 09:44:48;;;;;;;6.97;1.33;;;22.30;92.10;;;;;;4975005;28;259770;-80
2022/07/04 09:47:27;;;;;;;7.00;1.33;;;22.00;92.60;;;;;;4936221;28;129858;-79
2022/07/04 09:50:02;;;;;;;9.98;1.40;;;22.20;92.70;;;;;;4995394;28;261816;-80
2022/07/04 09:52:30;;;;;;;7.60;1.02;;;22.80;92.60;;;;;;4959247;28;217941;-79
2022/07/04 09:55:02;;;;;;;6.70;1.10;;;23.10;92.50;;;;;;4991967;28;88691;-80
2022/07/04 09:57:30;;;;;;;6.97;1.38;;;23.60;92.10;;;;;;4938629;28;207232;-79
2022/07/04 09:59:56;;;;;;;5.40;1.30;;;24.10;86.80;;;;;;4988071;28;52446;-79
2022/07/04 10:02:23;;;;;;;4.90;1.10;;;24.30;80.80;;;;;;4934969;28;210306;-79
2022/07/04 10:04:52;;;;;;;4.57;0.93;;;23.80;76.60;;;;;;4977114;28;278701;-79
2022/07/04 10:07:51;;;;;;;6.80;0.98;;;23.70;74.20;;;;;;4958200;28;205642;-79
2022/07/04 10:10:35;;;;;;;7.25;1.00;;;23.50;69.30;;;;;;4943539;28;100105;-79
2022/07/04 10:13:04;;;;;;;6.60;1.20;;;23.40;68.30;;;;;;4930976;28;204806;-79
2022/07/04 10:15:32;;;;;;;6.45;1.30;;;23.60;67.50;;;;;;4906365;28;203921;-79
2022/07/04 10:17:59;;;;;;;6.57;1.30;;;23.80;70.60;;;;;;4975672;28;20046;-79
2022/07/04 10:20:26;;;;;;;5.75;1.30;;;24.10;67.10;;;;;;4900749;28;220485;-80
2022/07/04 10:22:52;;;;;;;6.45;1.30;;;23.90;69.30;;;;;;4960413;28;20050;-80
2022/07/04 10:25:18;;;;;;;6.40;1.33;;;24.00;70.40;;;;;;4961553;28;274408;-79
2022/07/04 10:27:46;;;;;;;5.75;1.20;;;24.50;68.20;;;;;;4967586;28;210562;-80
2022/07/04 10:30:20;;;;;;;6.45;1.35;;;24.30;70.20;;;;;;4966322;28;197908;-80
2022/07/04 10:32:48;;;;;;;5.40;1.20;;;24.40;69.70;;;;;;4922600;28;179746;-79
2022/07/04 10:35:15;;;;;;;5.57;1.40;;;24.70;73.30;;;;;;4961585;28;59669;-79
2022/07/04 10:38:04;;;;;;;7.28;1.40;;;24.70;69.40;;;;;;4923133;28;211605;-79
2022/07/04 10:40:39;;;;;;;5.70;1.25;;;24.20;70.50;;;;;;4928672;28;229920;-79
2022/07/04 10:43:24;;;;;;;9.40;1.90;;;23.90;71.00;;;;;;4958397;28;20049;-79
2022/07/04 10:45:51;;;;;;;5.47;1.15;;;23.60;73.70;;;;;;4909169;28;207885;-79
2022/07/04 10:48:24;;;;;;;6.82;1.38;;;23.30;70.00;;;;;;4991431;28;20058;-79
2022/07/04 10:51:00;;;;;;;5.75;1.23;;;23.30;69.40;;;;;;4929488;28;204973;-80
2022/07/04 10:53:30;;;;;;;8.00;1.40;;;23.30;72.00;;;;;;4984199;28;20050;-79
2022/07/04 10:56:15;;;;;;;6.47;1.48;;;23.20;72.60;;;;;;4941710;28;195542;-79
2022/07/04 10:58:42;;;;;;;8.15;1.25;;;23.30;71.30;;;;;;4998135;28;20053;-79
2022/07/04 11:01:11;;;;;;;7.95;1.35;;;23.60;73.30;;;;;;4932893;28;126757;-79
2022/07/04 11:03:52;;;;;;;6.43;1.23;;;24.20;72.40;;;;;;4974368;28;20145;-79
2022/07/04 11:06:35;;;;;;;6.32;1.27;;;24.60;69.10;;;;;;4925968;28;216003;-79
2022/07/04 11:09:23;;;;;;;8.68;1.30;;;24.60;67.80;;;;;;4997916;28;20058;-79
2022/07/04 11:12:06;;;;;;;11.25;1.55;;;24.60;67.80;;;;;;4924444;28;205419;-80
2022/07/04 11:14:41;;;;;;;5.57;1.13;;;24.40;68.60;;;;;;4973064;28;250676;-78
2022/07/04 11:17:10;;;;;;;6.68;1.33;;;23.80;68.90;;;;;;4953171;28;211542;-78
2022/07/04 11:19:37;;;;;;;7.22;1.15;;;23.90;70.40;;;;;;4997611;28;167424;-78
2022/07/04 11:22:08;;;;;;;5.90;1.10;;;24.00;69.30;;;;;;4967543;28;209397;-77
2022/07/04 11:24:35;;;;;;;5.03;0.95;;;24.20;68.30;;;;;;4989017;28;191764;-77
2022/07/04 11:27:02;;;;;;;6.43;1.20;;;24.90;64.70;;;;;;4955289;28;139237;-77
2022/07/04 11:29:29;;;;;;;4.38;1.00;;;25.10;64.00;;;;;;4973035;28;253048;-78
2022/07/04 11:31:56;;;;;;;7.60;1.30;;;25.10;62.70;;;;;;4952981;28;215397;-78
2022/07/04 11:34:23;;;;;;;4.75;1.00;;;25.20;62.00;;;;;;4995994;28;264546;-78
2022/07/04 11:36:51;;;;;;;4.95;1.00;;;25.40;62.50;;;;;;4934087;28;205971;-78
2022/07/04 11:39:20;;;;;;;6.20;1.10;;;25.60;57.60;;;;;;4990575;28;257986;-79
2022/07/04 11:47:38;;;;;;;5.15;1.10;;;24.90;59.10;;;;;;4950878;28;221408;-80
2022/07/04 11:50:06;;;;;;;4.93;1.10;;;24.90;59.40;;;;;;5005368;28;43573;-80
2022/07/04 11:52:51;;;;;;;7.07;1.20;;;25.20;60.20;;;;;;4971516;28;153044;-80
2022/07/04 11:55:18;;;;;;;7.60;1.30;;;25.70;60.10;;;;;;4973746;28;216697;-81
2022/07/04 11:57:46;;;;;;;6.18;1.00;;;26.00;61.20;;;;;;4993589;28;69102;-81
2022/07/04 12:00:16;;;;;;;6.47;1.20;;;26.20;59.00;;;;;;5001197;28;34198;-80
2022/07/04 12:02:47;;;;;;;5.28;0.93;;;26.40;56.60;;;;;;4963095;28;206164;-81
2022/07/04 12:05:15;;;;;;;4.82;0.93;;;26.40;56.20;;;;;;4970337;28;168797;-81
2022/07/04 12:07:44;;;;;;;6.38;1.10;;;26.50;54.10;;;;;;4935673;28;207245;-81
2022/07/04 12:10:15;;;;;;;4.95;1.00;;;26.10;53.60;;;;;;4998254;28;209347;-81
2022/07/04 12:12:58;;;;;;;6.00;0.98;;;25.90;52.10;;;;;;4955810;28;82243;-81
2022/07/04 12:15:35;;;;;;;4.00;1.00;;;25.80;55.10;;;;;;4962233;28;198543;-81
2022/07/04 12:18:02;;;;;;;8.32;1.10;;;25.80;55.90;;;;;;5007196;28;20063;-80
2022/07/04 12:20:29;;;;;;;6.00;0.90;;;25.20;54.30;;;;;;4967589;28;190376;-81
2022/07/04 12:22:59;;;;;;;5.63;0.90;;;24.90;53.40;;;;;;5017581;28;20077;-80
2022/07/04 12:25:32;;;;;;;5.17;1.40;;;25.00;53.70;;;;;;4946837;28;256247;-80
2022/07/04 12:28:09;;;;;;;5.05;0.98;;;25.20;54.90;;;;;;4991522;28;20061;-80
2022/07/04 12:30:39;;;;;;;5.43;0.95;;;25.60;54.00;;;;;;4952080;28;206287;-80
2022/07/04 12:33:07;;;;;;;6.85;1.30;;;25.80;52.30;;;;;;4991925;28;20057;-80
2022/07/04 12:35:47;;;;;;;6.67;1.00;;;26.30;52.60;;;;;;4958439;28;204757;-81
2022/07/04 12:38:15;;;;;;;6.63;1.10;;;26.00;51.20;;;;;;5003831;28;20050;-80
2022/07/04 12:41:00;;;;;;;4.80;0.93;;;25.30;51.10;;;;;;4958518;28;235926;-80
2022/07/04 12:43:46;;;;;;;3.50;0.77;;;25.70;50.70;;;;;;4992672;28;20056;-80
2022/07/04 12:46:32;;;;;;;3.72;0.90;;;25.70;50.00;;;;;;4948272;28;212201;-81
2022/07/04 12:49:00;;;;;;;5.43;1.08;;;25.90;50.50;;;;;;5017635;28;20054;-81
2022/07/04 12:51:26;;;;;;;5.80;1.00;;;26.20;50.90;;;;;;4948114;28;207040;-80
2022/07/04 12:53:54;;;;;;;5.13;1.00;;;26.50;50.50;;;;;;5000682;28;20058;-81
2022/07/04 12:56:32;;;;;;;7.75;0.90;;;26.40;49.80;;;;;;4932574;28;236797;-80
2022/07/04 12:59:05;;;;;;;5.82;1.00;;;26.40;48.60;;;;;;4992165;28;20050;-80